Main page
METAR-TAF:

METAR-TAF

Airports :

Kos International Airport

Kos, Greece

latitude: 36-47N, longitude: 027-04E, elevation: 129 m

Current weather observation

The report was made 37 minutes ago, at 09:50 UTC
Wind 11 kt from the West
Temperature 29°C
Humidity 70%
Pressure 1004 hPa
Visibility 10 km or more
Scattered clouds at a height of 1200 ft

METAR: LGKO 180950Z 27011KT 9999 SCT012 29/23 Q1004

Time: 13:27 (10:27 UTC)

Forecast

The report was made 5 hours and 27 minutes ago, at 05:00 UTC
Forecast valid from 18 at 06 UTC to 19 at 06 UTC
Wind 15 kt from the Northwest
Visibility 10 km or more
Scattered clouds at a height of 1500 ft

TAF: LGKO 180500Z 1806/1906 31015KT 9999 SCT015

Weather observations and forecasts of more than 4000 airports (METAR and TAF reports).

The available stations are represented by yellow and red dots on the map.

Hover mouse over dot to see the name of the station.

Then click to see weather observations and forecasts.

To change the map : click on the green buttons with a black cross to zoom in, on the green button with a dash to zoom out, or on the green arrows for adjacent maps.


METAR-TAF: